sensor_id;sensor_type;location;lat;lon;timestamp;temperature;humidity
19947;DHT22;10135;50.702;7.276;2022-07-01T00:00:57;19.40;58.30
19947;DHT22;10135;50.702;7.276;2022-07-01T00:02:58;19.40;58.40
19947;DHT22;10135;50.702;7.276;2022-07-01T00:04:58;19.40;58.50
19947;DHT22;10135;50.702;7.276;2022-07-01T00:06:59;19.40;58.50
19947;DHT22;10135;50.702;7.276;2022-07-01T00:09:01;19.40;58.50
19947;DHT22;10135;50.702;7.276;2022-07-01T00:11:01;19.40;58.60
19947;DHT22;10135;50.702;7.276;2022-07-01T00:13:02;19.40;58.60
19947;DHT22;10135;50.702;7.276;2022-07-01T00:15:03;19.40;58.60
19947;DHT22;10135;50.702;7.276;2022-07-01T00:17:04;19.40;58.70
19947;DHT22;10135;50.702;7.276;2022-07-01T00:19:05;19.40;58.70
19947;DHT22;10135;50.702;7.276;2022-07-01T00:21:05;19.40;58.70
19947;DHT22;10135;50.702;7.276;2022-07-01T00:23:06;19.40;58.70
19947;DHT22;10135;50.702;7.276;2022-07-01T00:25:08;19.40;58.70
19947;DHT22;10135;50.702;7.276;2022-07-01T00:27:09;19.40;58.80
19947;DHT22;10135;50.702;7.276;2022-07-01T00:29:10;19.40;58.90
19947;DHT22;10135;50.702;7.276;2022-07-01T00:31:11;19.40;58.90
19947;DHT22;10135;50.702;7.276;2022-07-01T00:33:11;19.40;58.90
19947;DHT22;10135;50.702;7.276;2022-07-01T00:35:12;19.40;59.00
19947;DHT22;10135;50.702;7.276;2022-07-01T00:37:13;19.40;59.00
19947;DHT22;10135;50.702;7.276;2022-07-01T00:39:13;19.40;59.00
19947;DHT22;10135;50.702;7.276;2022-07-01T00:41:14;19.40;59.10
19947;DHT22;10135;50.702;7.276;2022-07-01T00:43:15;19.40;59.10
19947;DHT22;10135;50.702;7.276;2022-07-01T00:45:16;19.40;59.10
19947;DHT22;10135;50.702;7.276;2022-07-01T00:47:16;19.40;59.20
19947;DHT22;10135;50.702;7.276;2022-07-01T00:49:18;19.40;59.20
19947;DHT22;10135;50.702;7.276;2022-07-01T00:51:20;19.40;59.20
19947;DHT22;10135;50.702;7.276;2022-07-01T00:53:21;19.40;59.20
19947;DHT22;10135;50.702;7.276;2022-07-01T00:55:21;19.40;59.30
19947;DHT22;10135;50.702;7.276;2022-07-01T00:57:22;19.40;59.30
19947;DHT22;10135;50.702;7.276;2022-07-01T00:59:23;19.40;59.30
19947;DHT22;10135;50.702;7.276;2022-07-01T01:01:24;19.40;59.30
19947;DHT22;10135;50.702;7.276;2022-07-01T01:03:26;19.40;59.50
19947;DHT22;10135;50.702;7.276;2022-07-01T01:05:27;19.40;59.50
19947;DHT22;10135;50.702;7.276;2022-07-01T01:07:27;19.40;59.50
19947;DHT22;10135;50.702;7.276;2022-07-01T01:09:29;19.40;59.50
19947;DHT22;10135;50.702;7.276;2022-07-01T01:11:30;19.40;59.50
19947;DHT22;10135;50.702;7.276;2022-07-01T01:13:32;19.40;59.60
19947;DHT22;10135;50.702;7.276;2022-07-01T01:15:33;19.40;59.60
19947;DHT22;10135;50.702;7.276;2022-07-01T01:17:34;19.40;59.60
19947;DHT22;10135;50.702;7.276;2022-07-01T01:19:34;19.40;59.60
19947;DHT22;10135;50.702;7.276;2022-07-01T01:21:35;19.40;59.70
19947;DHT22;10135;50.702;7.276;2022-07-01T01:23:36;19.40;59.70
19947;DHT22;10135;50.702;7.276;2022-07-01T01:25:37;19.40;59.70
19947;DHT22;10135;50.702;7.276;2022-07-01T01:27:37;19.40;59.70
19947;DHT22;10135;50.702;7.276;2022-07-01T01:29:38;19.40;59.70
19947;DHT22;10135;50.702;7.276;2022-07-01T01:31:40;19.40;59.70
19947;DHT22;10135;50.702;7.276;2022-07-01T01:33:41;19.40;59.80
19947;DHT22;10135;50.702;7.276;2022-07-01T01:35:42;19.40;59.80
19947;DHT22;10135;50.702;7.276;2022-07-01T01:37:43;19.40;59.80
19947;DHT22;10135;50.702;7.276;2022-07-01T01:39:43;19.40;59.80
19947;DHT22;10135;50.702;7.276;2022-07-01T01:41:44;19.40;59.90
19947;DHT22;10135;50.702;7.276;2022-07-01T01:43:45;19.40;60.00
19947;DHT22;10135;50.702;7.276;2022-07-01T01:45:47;19.40;60.00
19947;DHT22;10135;50.702;7.276;2022-07-01T01:47:48;19.40;59.90
19947;DHT22;10135;50.702;7.276;2022-07-01T01:49:48;19.40;59.90
19947;DHT22;10135;50.702;7.276;2022-07-01T01:51:49;19.40;59.90
19947;DHT22;10135;50.702;7.276;2022-07-01T01:53:50;19.40;59.90
19947;DHT22;10135;50.702;7.276;2022-07-01T01:55:50;19.40;60.00
19947;DHT22;10135;50.702;7.276;2022-07-01T01:57:51;19.40;60.00
19947;DHT22;10135;50.702;7.276;2022-07-01T01:59:52;19.40;60.00
19947;DHT22;10135;50.702;7.276;2022-07-01T02:01:52;19.40;60.10
19947;DHT22;10135;50.702;7.276;2022-07-01T02:03:53;19.40;60.10
19947;DHT22;10135;50.702;7.276;2022-07-01T02:05:54;19.40;60.10
19947;DHT22;10135;50.702;7.276;2022-07-01T02:07:55;19.30;60.10
19947;DHT22;10135;50.702;7.276;2022-07-01T02:09:55;19.30;60.20
19947;DHT22;10135;50.702;7.276;2022-07-01T02:11:56;19.30;60.30
19947;DHT22;10135;50.702;7.276;2022-07-01T02:13:57;19.30;60.30
19947;DHT22;10135;50.702;7.276;2022-07-01T02:15:57;19.30;60.30
19947;DHT22;10135;50.702;7.276;2022-07-01T02:17:59;19.30;60.30
19947;DHT22;10135;50.702;7.276;2022-07-01T02:19:59;19.30;60.30
19947;DHT22;10135;50.702;7.276;2022-07-01T02:22:00;19.30;60.30
19947;DHT22;10135;50.702;7.276;2022-07-01T02:24:00;19.30;60.40
19947;DHT22;10135;50.702;7.276;2022-07-01T02:26:01;19.30;60.50
19947;DHT22;10135;50.702;7.276;2022-07-01T02:28:02;19.30;60.40
19947;DHT22;10135;50.702;7.276;2022-07-01T02:30:05;19.30;60.40
19947;DHT22;10135;50.702;7.276;2022-07-01T02:32:07;19.30;60.50
19947;DHT22;10135;50.702;7.276;2022-07-01T02:34:07;19.30;60.50
19947;DHT22;10135;50.702;7.276;2022-07-01T02:36:08;19.30;60.50
19947;DHT22;10135;50.702;7.276;2022-07-01T02:38:09;19.30;60.30
19947;DHT22;10135;50.702;7.276;2022-07-01T02:40:10;19.30;60.30
19947;DHT22;10135;50.702;7.276;2022-07-01T02:42:13;19.30;60.30
19947;DHT22;10135;50.702;7.276;2022-07-01T02:44:28;19.30;60.30
19947;DHT22;10135;50.702;7.276;2022-07-01T02:46:29;19.20;60.30
19947;DHT22;10135;50.702;7.276;2022-07-01T02:48:29;19.30;60.30
19947;DHT22;10135;50.702;7.276;2022-07-01T02:50:30;19.20;60.30
19947;DHT22;10135;50.702;7.276;2022-07-01T02:52:31;19.20;60.30
19947;DHT22;10135;50.702;7.276;2022-07-01T02:54:32;19.20;60.30
19947;DHT22;10135;50.702;7.276;2022-07-01T02:56:33;19.20;60.30
19947;DHT22;10135;50.702;7.276;2022-07-01T02:58:33;19.20;60.30
19947;DHT22;10135;50.702;7.276;2022-07-01T03:00:34;19.20;60.30
19947;DHT22;10135;50.702;7.276;2022-07-01T03:02:35;19.20;60.30
19947;DHT22;10135;50.702;7.276;2022-07-01T03:04:36;19.20;60.30
19947;DHT22;10135;50.702;7.276;2022-07-01T03:06:36;19.20;60.40
19947;DHT22;10135;50.702;7.276;2022-07-01T03:08:37;19.10;60.30
19947;DHT22;10135;50.702;7.276;2022-07-01T03:10:37;19.10;60.40
19947;DHT22;10135;50.702;7.276;2022-07-01T03:12:38;19.10;60.50
19947;DHT22;10135;50.702;7.276;2022-07-01T03:14:40;19.10;60.50
19947;DHT22;10135;50.702;7.276;2022-07-01T03:16:41;19.10;60.60
19947;DHT22;10135;50.702;7.276;2022-07-01T03:18:41;19.10;60.60
19947;DHT22;10135;50.702;7.276;2022-07-01T03:20:42;19.10;60.60
19947;DHT22;10135;50.702;7.276;2022-07-01T03:22:44;19.10;60.70
19947;DHT22;10135;50.702;7.276;2022-07-01T03:24:47;19.10;60.70
19947;DHT22;10135;50.702;7.276;2022-07-01T03:26:49;19.10;60.70
19947;DHT22;10135;50.702;7.276;2022-07-01T03:28:49;19.10;60.70
19947;DHT22;10135;50.702;7.276;2022-07-01T03:30:50;19.10;60.70
19947;DHT22;10135;50.702;7.276;2022-07-01T03:32:51;19.10;60.80
19947;DHT22;10135;50.702;7.276;2022-07-01T03:34:52;19.00;60.70
19947;DHT22;10135;50.702;7.276;2022-07-01T03:36:54;19.00;60.80
19947;DHT22;10135;50.702;7.276;2022-07-01T03:38:54;19.00;60.80
19947;DHT22;10135;50.702;7.276;2022-07-01T03:40:55;19.00;60.90
19947;DHT22;10135;50.702;7.276;2022-07-01T03:42:56;19.00;60.90
19947;DHT22;10135;50.702;7.276;2022-07-01T03:44:57;19.00;61.00
19947;DHT22;10135;50.702;7.276;2022-07-01T03:46:57;19.00;61.10
19947;DHT22;10135;50.702;7.276;2022-07-01T03:48:58;19.00;61.10
19947;DHT22;10135;50.702;7.276;2022-07-01T03:50:59;19.00;61.10
19947;DHT22;10135;50.702;7.276;2022-07-01T03:53:00;19.00;61.10
19947;DHT22;10135;50.702;7.276;2022-07-01T03:55:18;19.00;61.10
19947;DHT22;10135;50.702;7.276;2022-07-01T03:57:19;19.00;61.10
19947;DHT22;10135;50.702;7.276;2022-07-01T03:59:21;19.00;61.10
19947;DHT22;10135;50.702;7.276;2022-07-01T04:01:22;19.00;61.10
19947;DHT22;10135;50.702;7.276;2022-07-01T04:03:22;19.00;61.90
19947;DHT22;10135;50.702;7.276;2022-07-01T04:05:23;19.00;61.10
19947;DHT22;10135;50.702;7.276;2022-07-01T04:07:24;19.10;61.30
19947;DHT22;10135;50.702;7.276;2022-07-01T04:09:26;19.10;61.30
19947;DHT22;10135;50.702;7.276;2022-07-01T04:11:28;19.10;61.30
19947;DHT22;10135;50.702;7.276;2022-07-01T04:13:29;19.00;61.10
19947;DHT22;10135;50.702;7.276;2022-07-01T04:15:31;19.00;61.20
19947;DHT22;10135;50.702;7.276;2022-07-01T04:17:32;19.10;61.40
19947;DHT22;10135;50.702;7.276;2022-07-01T04:19:32;19.00;61.30
19947;DHT22;10135;50.702;7.276;2022-07-01T04:21:35;19.00;61.30
19947;DHT22;10135;50.702;7.276;2022-07-01T04:23:54;19.00;61.30
19947;DHT22;10135;50.702;7.276;2022-07-01T04:25:56;19.00;61.30
19947;DHT22;10135;50.702;7.276;2022-07-01T04:27:57;19.00;61.30
19947;DHT22;10135;50.702;7.276;2022-07-01T04:29:59;19.00;61.30
19947;DHT22;10135;50.702;7.276;2022-07-01T04:32:02;19.00;61.30
19947;DHT22;10135;50.702;7.276;2022-07-01T04:34:04;19.00;61.40
19947;DHT22;10135;50.702;7.276;2022-07-01T04:36:06;19.00;61.30
19947;DHT22;10135;50.702;7.276;2022-07-01T04:38:06;19.00;61.30
19947;DHT22;10135;50.702;7.276;2022-07-01T04:40:09;19.00;61.30
19947;DHT22;10135;50.702;7.276;2022-07-01T04:42:09;19.10;61.40
19947;DHT22;10135;50.702;7.276;2022-07-01T04:44:11;19.00;61.30
19947;DHT22;10135;50.702;7.276;2022-07-01T04:46:11;19.00;61.30
19947;DHT22;10135;50.702;7.276;2022-07-01T04:48:12;19.00;61.30
19947;DHT22;10135;50.702;7.276;2022-07-01T04:50:14;19.00;61.30
19947;DHT22;10135;50.702;7.276;2022-07-01T04:52:15;19.00;61.30
19947;DHT22;10135;50.702;7.276;2022-07-01T04:54:16;19.00;61.20
19947;DHT22;10135;50.702;7.276;2022-07-01T04:56:17;19.00;62.00
19947;DHT22;10135;50.702;7.276;2022-07-01T04:58:18;19.00;61.20
19947;DHT22;10135;50.702;7.276;2022-07-01T05:00:19;19.00;61.10
19947;DHT22;10135;50.702;7.276;2022-07-01T05:02:20;19.00;61.10
19947;DHT22;10135;50.702;7.276;2022-07-01T05:04:21;19.00;61.10
19947;DHT22;10135;50.702;7.276;2022-07-01T05:06:22;19.00;61.10
19947;DHT22;10135;50.702;7.276;2022-07-01T05:08:22;19.00;61.10
19947;DHT22;10135;50.702;7.276;2022-07-01T05:10:23;19.00;61.10
19947;DHT22;10135;50.702;7.276;2022-07-01T05:12:24;19.00;61.10
19947;DHT22;10135;50.702;7.276;2022-07-01T05:14:25;18.90;61.00
19947;DHT22;10135;50.702;7.276;2022-07-01T05:16:26;18.90;61.00
19947;DHT22;10135;50.702;7.276;2022-07-01T05:18:26;18.90;61.10
19947;DHT22;10135;50.702;7.276;2022-07-01T05:20:46;18.90;61.10
19947;DHT22;10135;50.702;7.276;2022-07-01T05:23:05;18.90;61.10
19947;DHT22;10135;50.702;7.276;2022-07-01T05:25:05;18.90;61.10
19947;DHT22;10135;50.702;7.276;2022-07-01T05:29:10;18.90;61.10
19947;DHT22;10135;50.702;7.276;2022-07-01T05:31:11;18.90;61.10
19947;DHT22;10135;50.702;7.276;2022-07-01T05:33:12;18.90;61.10
19947;DHT22;10135;50.702;7.276;2022-07-01T05:35:13;18.90;61.10
19947;DHT22;10135;50.702;7.276;2022-07-01T05:37:14;18.90;61.10
19947;DHT22;10135;50.702;7.276;2022-07-01T05:39:18;18.90;61.10
19947;DHT22;10135;50.702;7.276;2022-07-01T05:41:18;18.90;61.10
19947;DHT22;10135;50.702;7.276;2022-07-01T05:43:19;18.90;61.00
19947;DHT22;10135;50.702;7.276;2022-07-01T05:45:20;18.90;60.90
19947;DHT22;10135;50.702;7.276;2022-07-01T05:47:21;18.90;61.00
19947;DHT22;10135;50.702;7.276;2022-07-01T05:49:22;18.90;60.90
19947;DHT22;10135;50.702;7.276;2022-07-01T05:51:22;19.00;61.00
19947;DHT22;10135;50.702;7.276;2022-07-01T05:53:23;19.00;61.00
19947;DHT22;10135;50.702;7.276;2022-07-01T05:55:24;19.00;61.00
19947;DHT22;10135;50.702;7.276;2022-07-01T05:57:24;19.00;61.00
19947;DHT22;10135;50.702;7.276;2022-07-01T05:59:25;19.00;60.90
19947;DHT22;10135;50.702;7.276;2022-07-01T06:01:26;19.00;60.90
19947;DHT22;10135;50.702;7.276;2022-07-01T06:03:26;19.00;60.90
19947;DHT22;10135;50.702;7.276;2022-07-01T06:05:27;19.00;60.90
19947;DHT22;10135;50.702;7.276;2022-07-01T06:07:30;19.00;60.90
19947;DHT22;10135;50.702;7.276;2022-07-01T06:09:30;19.10;60.90
19947;DHT22;10135;50.702;7.276;2022-07-01T06:11:31;19.00;60.80
19947;DHT22;10135;50.702;7.276;2022-07-01T06:13:32;19.10;60.90
19947;DHT22;10135;50.702;7.276;2022-07-01T06:15:32;19.00;60.80
19947;DHT22;10135;50.702;7.276;2022-07-01T06:17:34;19.00;60.70
19947;DHT22;10135;50.702;7.276;2022-07-01T06:19:36;19.10;60.80
19947;DHT22;10135;50.702;7.276;2022-07-01T06:21:38;19.10;60.80
19947;DHT22;10135;50.702;7.276;2022-07-01T06:23:39;19.20;60.90
19947;DHT22;10135;50.702;7.276;2022-07-01T06:25:39;19.20;60.80
19947;DHT22;10135;50.702;7.276;2022-07-01T06:27:42;19.20;60.70
19947;DHT22;10135;50.702;7.276;2022-07-01T06:29:44;19.20;60.60
19947;DHT22;10135;50.702;7.276;2022-07-01T06:31:45;19.20;60.60
19947;DHT22;10135;50.702;7.276;2022-07-01T06:33:45;19.20;60.70
19947;DHT22;10135;50.702;7.276;2022-07-01T06:35:46;19.20;60.50
19947;DHT22;10135;50.702;7.276;2022-07-01T06:37:47;19.20;60.50
19947;DHT22;10135;50.702;7.276;2022-07-01T06:39:47;19.20;61.30
19947;DHT22;10135;50.702;7.276;2022-07-01T06:41:48;19.30;60.70
19947;DHT22;10135;50.702;7.276;2022-07-01T06:43:48;19.30;60.70
19947;DHT22;10135;50.702;7.276;2022-07-01T06:45:49;19.30;60.80
19947;DHT22;10135;50.702;7.276;2022-07-01T06:47:50;19.40;60.80
19947;DHT22;10135;50.702;7.276;2022-07-01T06:49:51;19.40;60.80
19947;DHT22;10135;50.702;7.276;2022-07-01T06:51:51;19.40;60.60
19947;DHT22;10135;50.702;7.276;2022-07-01T06:53:52;19.40;60.60
19947;DHT22;10135;50.702;7.276;2022-07-01T06:55:53;19.40;60.60
19947;DHT22;10135;50.702;7.276;2022-07-01T06:57:53;19.50;60.60
19947;DHT22;10135;50.702;7.276;2022-07-01T06:59:54;19.50;60.60
19947;DHT22;10135;50.702;7.276;2022-07-01T07:01:55;19.50;60.60
19947;DHT22;10135;50.702;7.276;2022-07-01T07:03:56;19.60;60.70
19947;DHT22;10135;50.702;7.276;2022-07-01T07:05:56;19.60;60.60
19947;DHT22;10135;50.702;7.276;2022-07-01T07:07:59;19.60;60.60
19947;DHT22;10135;50.702;7.276;2022-07-01T07:10:00;19.60;60.60
19947;DHT22;10135;50.702;7.276;2022-07-01T07:12:00;19.60;60.50
19947;DHT22;10135;50.702;7.276;2022-07-01T07:14:01;19.70;60.60
19947;DHT22;10135;50.702;7.276;2022-07-01T07:16:02;19.70;60.60
19947;DHT22;10135;50.702;7.276;2022-07-01T07:18:03;19.70;60.50
19947;DHT22;10135;50.702;7.276;2022-07-01T07:20:04;19.70;60.50
19947;DHT22;10135;50.702;7.276;2022-07-01T07:22:05;19.70;60.30
19947;DHT22;10135;50.702;7.276;2022-07-01T07:24:06;19.70;60.20
19947;DHT22;10135;50.702;7.276;2022-07-01T07:26:07;19.70;60.20
19947;DHT22;10135;50.702;7.276;2022-07-01T07:28:08;19.70;60.20
19947;DHT22;10135;50.702;7.276;2022-07-01T07:30:09;19.70;60.20
19947;DHT22;10135;50.702;7.276;2022-07-01T07:32:10;19.70;60.20
19947;DHT22;10135;50.702;7.276;2022-07-01T07:34:11;19.70;60.10
19947;DHT22;10135;50.702;7.276;2022-07-01T07:36:11;19.70;60.00
19947;DHT22;10135;50.702;7.276;2022-07-01T07:38:12;19.70;60.00
19947;DHT22;10135;50.702;7.276;2022-07-01T07:40:13;19.70;60.00
19947;DHT22;10135;50.702;7.276;2022-07-01T07:42:18;19.70;60.00
19947;DHT22;10135;50.702;7.276;2022-07-01T07:44:19;19.70;60.10
19947;DHT22;10135;50.702;7.276;2022-07-01T07:46:19;19.70;60.10
19947;DHT22;10135;50.702;7.276;2022-07-01T07:48:20;19.70;60.10
19947;DHT22;10135;50.702;7.276;2022-07-01T07:50:21;19.80;60.20
19947;DHT22;10135;50.702;7.276;2022-07-01T07:52:25;19.70;60.10
19947;DHT22;10135;50.702;7.276;2022-07-01T07:54:26;19.80;60.20
19947;DHT22;10135;50.702;7.276;2022-07-01T07:56:27;19.80;60.20
19947;DHT22;10135;50.702;7.276;2022-07-01T07:58:27;19.80;60.10
19947;DHT22;10135;50.702;7.276;2022-07-01T08:00:28;19.80;60.00
19947;DHT22;10135;50.702;7.276;2022-07-01T08:02:29;19.80;60.00
19947;DHT22;10135;50.702;7.276;2022-07-01T08:04:29;19.80;60.00
19947;DHT22;10135;50.702;7.276;2022-07-01T08:06:30;19.80;60.00
19947;DHT22;10135;50.702;7.276;2022-07-01T08:08:31;19.80;60.00
19947;DHT22;10135;50.702;7.276;2022-07-01T08:10:32;19.90;60.10
19947;DHT22;10135;50.702;7.276;2022-07-01T08:12:33;19.80;60.00
19947;DHT22;10135;50.702;7.276;2022-07-01T08:14:34;19.90;60.00
19947;DHT22;10135;50.702;7.276;2022-07-01T08:16:35;19.90;60.10
19947;DHT22;10135;50.702;7.276;2022-07-01T08:18:36;19.90;60.00
19947;DHT22;10135;50.702;7.276;2022-07-01T08:20:37;20.00;60.10
19947;DHT22;10135;50.702;7.276;2022-07-01T08:22:38;20.00;60.10
19947;DHT22;10135;50.702;7.276;2022-07-01T08:24:38;20.00;60.10
19947;DHT22;10135;50.702;7.276;2022-07-01T08:26:39;20.00;60.80
19947;DHT22;10135;50.702;7.276;2022-07-01T08:28:40;20.00;59.90
19947;DHT22;10135;50.702;7.276;2022-07-01T08:30:41;20.10;60.70
19947;DHT22;10135;50.702;7.276;2022-07-01T08:32:41;20.10;59.90
19947;DHT22;10135;50.702;7.276;2022-07-01T08:34:42;20.20;59.90
19947;DHT22;10135;50.702;7.276;2022-07-01T08:36:43;20.20;59.90
19947;DHT22;10135;50.702;7.276;2022-07-01T08:38:43;20.20;60.00
19947;DHT22;10135;50.702;7.276;2022-07-01T08:40:44;20.30;60.00
19947;DHT22;10135;50.702;7.276;2022-07-01T08:42:45;20.30;60.00
19947;DHT22;10135;50.702;7.276;2022-07-01T08:44:46;20.30;59.90
19947;DHT22;10135;50.702;7.276;2022-07-01T08:46:46;20.30;59.80
19947;DHT22;10135;50.702;7.276;2022-07-01T08:48:47;20.30;59.80
19947;DHT22;10135;50.702;7.276;2022-07-01T08:50:49;20.30;59.80
19947;DHT22;10135;50.702;7.276;2022-07-01T08:52:49;20.30;59.80
19947;DHT22;10135;50.702;7.276;2022-07-01T08:54:50;20.30;59.80
19947;DHT22;10135;50.702;7.276;2022-07-01T08:56:50;20.30;59.70
19947;DHT22;10135;50.702;7.276;2022-07-01T08:58:51;20.40;59.80
19947;DHT22;10135;50.702;7.276;2022-07-01T09:00:53;20.40;59.90
19947;DHT22;10135;50.702;7.276;2022-07-01T09:03:11;20.40;59.90
19947;DHT22;10135;50.702;7.276;2022-07-01T09:05:12;20.40;59.80
19947;DHT22;10135;50.702;7.276;2022-07-01T09:07:12;20.40;59.70
19947;DHT22;10135;50.702;7.276;2022-07-01T09:09:15;20.50;59.70
19947;DHT22;10135;50.702;7.276;2022-07-01T09:11:20;20.50;59.60
19947;DHT22;10135;50.702;7.276;2022-07-01T09:13:22;20.50;59.40
19947;DHT22;10135;50.702;7.276;2022-07-01T09:17:26;20.60;60.00
19947;DHT22;10135;50.702;7.276;2022-07-01T09:19:29;20.60;59.30
19947;DHT22;10135;50.702;7.276;2022-07-01T09:21:32;20.60;59.30
19947;DHT22;10135;50.702;7.276;2022-07-01T09:23:32;20.70;59.30
19947;DHT22;10135;50.702;7.276;2022-07-01T09:25:37;20.70;59.20
19947;DHT22;10135;50.702;7.276;2022-07-01T09:27:39;20.70;59.10
19947;DHT22;10135;50.702;7.276;2022-07-01T09:29:42;20.80;59.00
19947;DHT22;10135;50.702;7.276;2022-07-01T09:31:49;20.80;58.90
19947;DHT22;10135;50.702;7.276;2022-07-01T09:34:03;20.80;58.70
19947;DHT22;10135;50.702;7.276;2022-07-01T09:36:14;20.90;58.50
19947;DHT22;10135;50.702;7.276;2022-07-01T09:38:18;20.90;58.50
19947;DHT22;10135;50.702;7.276;2022-07-01T09:40:20;20.90;58.70
19947;DHT22;10135;50.702;7.276;2022-07-01T09:42:23;20.90;58.70
19947;DHT22;10135;50.702;7.276;2022-07-01T09:44:25;21.00;58.60
19947;DHT22;10135;50.702;7.276;2022-07-01T09:46:27;21.00;58.50
19947;DHT22;10135;50.702;7.276;2022-07-01T09:50:35;21.10;58.30
19947;DHT22;10135;50.702;7.276;2022-07-01T09:52:37;21.20;58.50
19947;DHT22;10135;50.702;7.276;2022-07-01T09:54:39;21.20;58.40
19947;DHT22;10135;50.702;7.276;2022-07-01T09:56:41;21.30;58.30
19947;DHT22;10135;50.702;7.276;2022-07-01T09:58:42;21.30;58.20
19947;DHT22;10135;50.702;7.276;2022-07-01T10:00:43;21.30;58.10
19947;DHT22;10135;50.702;7.276;2022-07-01T10:02:45;21.40;58.10
19947;DHT22;10135;50.702;7.276;2022-07-01T10:05:08;21.40;58.10
19947;DHT22;10135;50.702;7.276;2022-07-01T10:12:57;21.60;57.60
19947;DHT22;10135;50.702;7.276;2022-07-01T10:15:01;21.60;57.30
19947;DHT22;10135;50.702;7.276;2022-07-01T10:17:05;21.60;57.60
19947;DHT22;10135;50.702;7.276;2022-07-01T10:19:27;21.60;57.50
19947;DHT22;10135;50.702;7.276;2022-07-01T10:21:31;21.70;57.10
19947;DHT22;10135;50.702;7.276;2022-07-01T10:23:42;21.70;57.50
19947;DHT22;10135;50.702;7.276;2022-07-01T10:25:45;21.70;56.80
19947;DHT22;10135;50.702;7.276;2022-07-01T10:30:31;21.80;56.70
19947;DHT22;10135;50.702;7.276;2022-07-01T10:32:33;21.80;56.90
19947;DHT22;10135;50.702;7.276;2022-07-01T10:34:36;21.80;57.00
19947;DHT22;10135;50.702;7.276;2022-07-01T10:36:40;21.90;56.80
19947;DHT22;10135;50.702;7.276;2022-07-01T10:41:22;21.90;56.30
19947;DHT22;10135;50.702;7.276;2022-07-01T10:43:33;22.00;56.30
19947;DHT22;10135;50.702;7.276;2022-07-01T10:45:45;22.00;57.00
19947;DHT22;10135;50.702;7.276;2022-07-01T10:47:46;22.00;56.10
19947;DHT22;10135;50.702;7.276;2022-07-01T10:49:53;22.10;56.70
19947;DHT22;10135;50.702;7.276;2022-07-01T10:51:57;22.20;56.20
19947;DHT22;10135;50.702;7.276;2022-07-01T10:53:58;22.20;56.40
19947;DHT22;10135;50.702;7.276;2022-07-01T10:55:59;22.20;56.20
19947;DHT22;10135;50.702;7.276;2022-07-01T10:58:00;22.20;56.20
19947;DHT22;10135;50.702;7.276;2022-07-01T11:02:16;22.30;56.10
19947;DHT22;10135;50.702;7.276;2022-07-01T11:04:17;22.30;55.60
19947;DHT22;10135;50.702;7.276;2022-07-01T11:06:19;22.30;56.00
19947;DHT22;10135;50.702;7.276;2022-07-01T11:08:20;22.30;55.80
19947;DHT22;10135;50.702;7.276;2022-07-01T11:10:22;22.40;55.80
19947;DHT22;10135;50.702;7.276;2022-07-01T11:12:23;22.30;55.90
19947;DHT22;10135;50.702;7.276;2022-07-01T11:14:24;22.40;55.90
19947;DHT22;10135;50.702;7.276;2022-07-01T11:16:28;22.40;55.80
19947;DHT22;10135;50.702;7.276;2022-07-01T11:18:31;22.50;55.60
19947;DHT22;10135;50.702;7.276;2022-07-01T11:20:32;22.50;55.60
19947;DHT22;10135;50.702;7.276;2022-07-01T11:22:35;22.50;55.40
19947;DHT22;10135;50.702;7.276;2022-07-01T11:24:36;22.60;55.30
19947;DHT22;10135;50.702;7.276;2022-07-01T11:26:36;22.60;55.50
19947;DHT22;10135;50.702;7.276;2022-07-01T11:28:39;22.70;55.30
19947;DHT22;10135;50.702;7.276;2022-07-01T11:30:40;22.80;55.00
19947;DHT22;10135;50.702;7.276;2022-07-01T11:32:52;22.80;54.90
19947;DHT22;10135;50.702;7.276;2022-07-01T11:34:56;22.90;54.10
19947;DHT22;10135;50.702;7.276;2022-07-01T11:36:58;22.90;54.60
19947;DHT22;10135;50.702;7.276;2022-07-01T11:39:19;22.90;54.50
19947;DHT22;10135;50.702;7.276;2022-07-01T11:41:24;22.90;54.20
19947;DHT22;10135;50.702;7.276;2022-07-01T11:43:28;22.90;54.10
19947;DHT22;10135;50.702;7.276;2022-07-01T11:45:31;22.90;53.90
19947;DHT22;10135;50.702;7.276;2022-07-01T11:47:32;22.90;53.90
19947;DHT22;10135;50.702;7.276;2022-07-01T11:49:34;22.80;53.80
19947;DHT22;10135;50.702;7.276;2022-07-01T11:51:57;22.80;53.70
19947;DHT22;10135;50.702;7.276;2022-07-01T11:53:59;22.80;53.10
19947;DHT22;10135;50.702;7.276;2022-07-01T11:56:00;22.80;53.80
19947;DHT22;10135;50.702;7.276;2022-07-01T11:58:01;22.80;53.90
19947;DHT22;10135;50.702;7.276;2022-07-01T12:00:12;22.80;53.80
19947;DHT22;10135;50.702;7.276;2022-07-01T12:02:15;22.90;53.20
19947;DHT22;10135;50.702;7.276;2022-07-01T12:04:16;22.90;53.80
19947;DHT22;10135;50.702;7.276;2022-07-01T12:06:18;23.00;53.70
19947;DHT22;10135;50.702;7.276;2022-07-01T12:08:19;23.00;53.50
19947;DHT22;10135;50.702;7.276;2022-07-01T12:10:26;23.10;53.60
19947;DHT22;10135;50.702;7.276;2022-07-01T12:12:28;23.10;53.00
19947;DHT22;10135;50.702;7.276;2022-07-01T12:14:34;23.10;53.30
19947;DHT22;10135;50.702;7.276;2022-07-01T12:16:40;23.20;53.00
19947;DHT22;10135;50.702;7.276;2022-07-01T12:18:58;23.20;52.90
19947;DHT22;10135;50.702;7.276;2022-07-01T12:21:01;23.20;52.70
19947;DHT22;10135;50.702;7.276;2022-07-01T12:23:14;23.20;53.10
19947;DHT22;10135;50.702;7.276;2022-07-01T12:25:15;23.10;52.50
19947;DHT22;10135;50.702;7.276;2022-07-01T12:27:20;23.10;53.00
19947;DHT22;10135;50.702;7.276;2022-07-01T12:29:23;23.00;52.70
19947;DHT22;10135;50.702;7.276;2022-07-01T12:31:24;23.00;52.90
19947;DHT22;10135;50.702;7.276;2022-07-01T12:33:26;23.00;52.90
19947;DHT22;10135;50.702;7.276;2022-07-01T12:35:27;22.90;52.80
19947;DHT22;10135;50.702;7.276;2022-07-01T12:37:38;22.90;52.90
19947;DHT22;10135;50.702;7.276;2022-07-01T12:39:55;22.90;52.90
19947;DHT22;10135;50.702;7.276;2022-07-01T12:41:57;22.90;52.50
19947;DHT22;10135;50.702;7.276;2022-07-01T12:43:58;22.90;52.90
19947;DHT22;10135;50.702;7.276;2022-07-01T12:46:00;22.90;53.00
19947;DHT22;10135;50.702;7.276;2022-07-01T12:48:01;22.90;52.90
19947;DHT22;10135;50.702;7.276;2022-07-01T12:52:26;22.90;52.40
19947;DHT22;10135;50.702;7.276;2022-07-01T12:54:31;22.90;52.80
19947;DHT22;10135;50.702;7.276;2022-07-01T12:56:33;22.90;52.60
19947;DHT22;10135;50.702;7.276;2022-07-01T12:58:34;22.90;52.60
19947;DHT22;10135;50.702;7.276;2022-07-01T13:00:36;22.90;52.60
19947;DHT22;10135;50.702;7.276;2022-07-01T13:02:38;22.90;52.60
19947;DHT22;10135;50.702;7.276;2022-07-01T13:04:39;23.00;52.60
19947;DHT22;10135;50.702;7.276;2022-07-01T13:06:39;23.10;52.60
19947;DHT22;10135;50.702;7.276;2022-07-01T13:08:40;23.20;52.50
19947;DHT22;10135;50.702;7.276;2022-07-01T13:10:41;23.20;52.50
19947;DHT22;10135;50.702;7.276;2022-07-01T13:12:42;23.30;52.40